Kezdőlap
METAR-TAF:

METAR-TAF

Repülőterek :

Brno, Csehország

földrajzi szélesség: 49-09N, földrajzi hosszúság: 016-42E, magasság: 241 m

Jelenlegi meteorológiai megfigyelések

A jelentés 20 perccel ezelõtt készült, 17:30 UTC
Észak-északkeleti szél 7 kt, északi és kelet-északkeleti között változik
Hőmérséklet -10°C
Páratartalom 61%
Légköri nyomás 1025 hPa
Látótávolság 10 km, vagy több
felhőtlen 1500 m magasságban, és nincs gomolyfelhõ

METAR: LKTB 251730Z 03007KT 360V060 CAVOK M10/M16 Q1025 NOSIG

Idő: 18:50 (17:50 UTC)

Előrejelzés

A jelentés 50 perccel ezelõtt készült, 17:00 UTC
Az előrejelzés 25-én 18 óra UTC és 27-én 00 óra UTC között érvényes
Északkeleti szél 12 kt
Látótávolság 10 km, vagy több
Szórványos felhőzet 3300 lábon
25-én 18 óra UTC és 27-én 00 óra UTC között ideiglenes
Szakadozott felhőzet 3000 lábon

TAF: LKTB 251700Z 2518/2700 04012KT 9999 SCT033 TEMPO 2518/2700 BKN030

Meteorológiai megfigyelések és előrejelzések több, mint 4000 repülőtéren (METAR és TAF jelentéseket).

A térképen piros és sárga pontok jelzik az elérhető meteorológiai állomásokat.

Mozgassa az egeret a pont fölött, hogy megjelenjen az állomás neve.

Azután kattintson az időjárási megfigyelések és előrejelzések megtekintéséhez.

A térkép megváltoztatása: kattintson a fekete keresztel jelölt zöld gombra ráközelítéshez, a vonallal jelölt zöld gombra távolításhoz, vagy a zöld nyilakra a szomszédos térképek eléréséhez.


METAR-TAF: